sensor_id;sensor_type;location;lat;lon;timestamp;P1;durP1;ratioP1;P2;durP2;ratioP2
86084;SDS011;76694;53.530;50.016;2024-03-06T00:02:37;18.80;;;7.80;;
86084;SDS011;76694;53.530;50.016;2024-03-06T00:07:39;21.20;;;8.50;;
86084;SDS011;76694;53.530;50.016;2024-03-06T00:12:42;21.95;;;9.90;;
86084;SDS011;76694;53.530;50.016;2024-03-06T00:17:44;33.85;;;12.40;;
86084;SDS011;76694;53.530;50.016;2024-03-06T00:22:47;16.90;;;9.50;;
86084;SDS011;76694;53.530;50.016;2024-03-06T00:27:50;29.20;;;11.40;;
86084;SDS011;76694;53.530;50.016;2024-03-06T00:32:52;21.08;;;8.63;;
86084;SDS011;76694;53.530;50.016;2024-03-06T00:37:55;25.70;;;8.80;;
86084;SDS011;76694;53.530;50.016;2024-03-06T00:42:58;22.48;;;9.07;;
86084;SDS011;76694;53.530;50.016;2024-03-06T00:48:00;15.82;;;6.93;;
86084;SDS011;76694;53.530;50.016;2024-03-06T00:53:03;39.40;;;10.93;;
86084;SDS011;76694;53.530;50.016;2024-03-06T00:58:06;33.33;;;10.57;;
86084;SDS011;76694;53.530;50.016;2024-03-06T01:03:09;27.02;;;11.45;;
86084;SDS011;76694;53.530;50.016;2024-03-06T01:08:12;24.63;;;7.80;;
86084;SDS011;76694;53.530;50.016;2024-03-06T01:13:14;23.00;;;9.38;;
86084;SDS011;76694;53.530;50.016;2024-03-06T01:18:17;23.00;;;10.32;;
86084;SDS011;76694;53.530;50.016;2024-03-06T01:23:20;26.45;;;8.60;;
86084;SDS011;76694;53.530;50.016;2024-03-06T01:28:23;24.48;;;10.13;;
86084;SDS011;76694;53.530;50.016;2024-03-06T01:33:25;24.95;;;10.68;;
86084;SDS011;76694;53.530;50.016;2024-03-06T01:38:28;17.88;;;6.95;;
86084;SDS011;76694;53.530;50.016;2024-03-06T01:43:36;28.95;;;9.35;;
86084;SDS011;76694;53.530;50.016;2024-03-06T01:48:43;41.03;;;14.95;;
86084;SDS011;76694;53.530;50.016;2024-03-06T01:53:46;27.85;;;10.90;;
86084;SDS011;76694;53.530;50.016;2024-03-06T01:58:49;25.83;;;10.90;;
86084;SDS011;76694;53.530;50.016;2024-03-06T02:03:52;23.38;;;10.18;;
86084;SDS011;76694;53.530;50.016;2024-03-06T02:08:55;34.15;;;10.60;;
86084;SDS011;76694;53.530;50.016;2024-03-06T02:13:58;27.40;;;10.05;;
86084;SDS011;76694;53.530;50.016;2024-03-06T02:19:01;15.18;;;7.43;;
86084;SDS011;76694;53.530;50.016;2024-03-06T02:24:04;14.50;;;7.50;;
86084;SDS011;76694;53.530;50.016;2024-03-06T02:29:06;30.58;;;9.65;;
86084;SDS011;76694;53.530;50.016;2024-03-06T02:34:10;17.48;;;8.38;;
86084;SDS011;76694;53.530;50.016;2024-03-06T02:39:13;16.58;;;8.05;;
86084;SDS011;76694;53.530;50.016;2024-03-06T02:44:16;40.35;;;13.10;;
86084;SDS011;76694;53.530;50.016;2024-03-06T02:49:19;27.30;;;7.68;;
86084;SDS011;76694;53.530;50.016;2024-03-06T02:54:22;16.35;;;7.78;;
86084;SDS011;76694;53.530;50.016;2024-03-06T02:59:26;25.42;;;10.55;;
86084;SDS011;76694;53.530;50.016;2024-03-06T03:04:29;23.30;;;8.40;;
86084;SDS011;76694;53.530;50.016;2024-03-06T03:09:32;22.65;;;10.55;;
86084;SDS011;76694;53.530;50.016;2024-03-06T03:14:34;26.73;;;9.93;;
86084;SDS011;76694;53.530;50.016;2024-03-06T03:19:37;18.60;;;8.35;;
86084;SDS011;76694;53.530;50.016;2024-03-06T03:24:41;19.75;;;7.95;;
86084;SDS011;76694;53.530;50.016;2024-03-06T03:29:45;14.13;;;7.13;;
86084;SDS011;76694;53.530;50.016;2024-03-06T03:34:47;21.05;;;8.75;;
86084;SDS011;76694;53.530;50.016;2024-03-06T03:39:50;19.52;;;8.90;;
86084;SDS011;76694;53.530;50.016;2024-03-06T03:44:53;18.55;;;7.95;;
86084;SDS011;76694;53.530;50.016;2024-03-06T03:49:55;25.60;;;8.88;;
86084;SDS011;76694;53.530;50.016;2024-03-06T03:54:58;27.42;;;10.50;;
86084;SDS011;76694;53.530;50.016;2024-03-06T04:00:01;23.55;;;9.57;;
86084;SDS011;76694;53.530;50.016;2024-03-06T04:05:04;35.35;;;14.48;;
86084;SDS011;76694;53.530;50.016;2024-03-06T04:10:07;39.63;;;15.10;;
86084;SDS011;76694;53.530;50.016;2024-03-06T04:20:15;20.92;;;10.48;;
86084;SDS011;76694;53.530;50.016;2024-03-06T04:25:18;27.40;;;12.70;;
86084;SDS011;76694;53.530;50.016;2024-03-06T04:30:20;26.30;;;12.68;;
86084;SDS011;76694;53.530;50.016;2024-03-06T04:35:23;25.60;;;10.82;;
86084;SDS011;76694;53.530;50.016;2024-03-06T04:40:26;41.50;;;12.50;;
86084;SDS011;76694;53.530;50.016;2024-03-06T04:45:30;25.52;;;12.50;;
86084;SDS011;76694;53.530;50.016;2024-03-06T04:50:33;29.45;;;13.25;;
86084;SDS011;76694;53.530;50.016;2024-03-06T04:55:36;18.45;;;10.63;;
86084;SDS011;76694;53.530;50.016;2024-03-06T05:00:40;26.02;;;11.82;;
86084;SDS011;76694;53.530;50.016;2024-03-06T05:05:43;30.15;;;12.73;;
86084;SDS011;76694;53.530;50.016;2024-03-06T05:10:45;35.35;;;13.15;;
86084;SDS011;76694;53.530;50.016;2024-03-06T05:15:48;18.92;;;8.70;;
86084;SDS011;76694;53.530;50.016;2024-03-06T05:20:53;34.42;;;12.57;;
86084;SDS011;76694;53.530;50.016;2024-03-06T05:25:56;21.10;;;9.77;;
86084;SDS011;76694;53.530;50.016;2024-03-06T05:30:59;39.65;;;17.27;;
86084;SDS011;76694;53.530;50.016;2024-03-06T05:36:03;32.70;;;14.10;;
86084;SDS011;76694;53.530;50.016;2024-03-06T05:41:07;28.13;;;12.25;;
86084;SDS011;76694;53.530;50.016;2024-03-06T05:46:11;42.75;;;15.85;;
86084;SDS011;76694;53.530;50.016;2024-03-06T05:51:13;32.95;;;11.45;;
86084;SDS011;76694;53.530;50.016;2024-03-06T05:56:19;31.83;;;10.93;;
86084;SDS011;76694;53.530;50.016;2024-03-06T06:01:22;17.60;;;7.60;;
86084;SDS011;76694;53.530;50.016;2024-03-06T06:06:25;22.92;;;9.52;;
86084;SDS011;76694;53.530;50.016;2024-03-06T06:11:27;16.50;;;5.93;;
86084;SDS011;76694;53.530;50.016;2024-03-06T06:16:39;20.48;;;8.50;;
86084;SDS011;76694;53.530;50.016;2024-03-06T06:21:44;17.73;;;7.93;;
86084;SDS011;76694;53.530;50.016;2024-03-06T06:26:47;13.57;;;5.05;;
86084;SDS011;76694;53.530;50.016;2024-03-06T06:31:49;10.13;;;3.85;;
86084;SDS011;76694;53.530;50.016;2024-03-06T06:36:52;10.13;;;4.15;;
86084;SDS011;76694;53.530;50.016;2024-03-06T06:41:55;7.65;;;3.97;;
86084;SDS011;76694;53.530;50.016;2024-03-06T06:46:58;7.65;;;3.35;;
86084;SDS011;76694;53.530;50.016;2024-03-06T06:52:01;5.95;;;2.80;;
86084;SDS011;76694;53.530;50.016;2024-03-06T06:57:03;6.15;;;2.92;;
86084;SDS011;76694;53.530;50.016;2024-03-06T07:02:06;4.20;;;2.40;;
86084;SDS011;76694;53.530;50.016;2024-03-06T07:07:09;8.00;;;2.67;;
86084;SDS011;76694;53.530;50.016;2024-03-06T07:12:12;6.88;;;3.88;;
86084;SDS011;76694;53.530;50.016;2024-03-06T07:17:14;7.00;;;3.90;;
86084;SDS011;76694;53.530;50.016;2024-03-06T07:22:17;6.93;;;2.90;;
86084;SDS011;76694;53.530;50.016;2024-03-06T07:27:20;6.25;;;3.72;;
86084;SDS011;76694;53.530;50.016;2024-03-06T07:32:22;5.70;;;3.10;;
86084;SDS011;76694;53.530;50.016;2024-03-06T07:37:25;7.68;;;3.58;;
86084;SDS011;76694;53.530;50.016;2024-03-06T07:42:28;6.10;;;3.67;;
86084;SDS011;76694;53.530;50.016;2024-03-06T07:47:31;6.75;;;3.47;;
86084;SDS011;76694;53.530;50.016;2024-03-06T07:52:34;7.18;;;3.78;;
86084;SDS011;76694;53.530;50.016;2024-03-06T07:57:38;5.07;;;3.03;;
86084;SDS011;76694;53.530;50.016;2024-03-06T08:02:41;5.75;;;3.03;;
86084;SDS011;76694;53.530;50.016;2024-03-06T08:07:48;6.35;;;3.08;;
86084;SDS011;76694;53.530;50.016;2024-03-06T08:12:51;3.85;;;2.47;;
86084;SDS011;76694;53.530;50.016;2024-03-06T08:17:54;5.35;;;1.50;;
86084;SDS011;76694;53.530;50.016;2024-03-06T08:22:56;1.83;;;1.30;;
86084;SDS011;76694;53.530;50.016;2024-03-06T08:27:59;3.97;;;1.67;;
86084;SDS011;76694;53.530;50.016;2024-03-06T08:33:02;2.67;;;1.42;;
86084;SDS011;76694;53.530;50.016;2024-03-06T08:38:05;4.10;;;2.22;;
86084;SDS011;76694;53.530;50.016;2024-03-06T08:43:08;5.25;;;1.83;;
86084;SDS011;76694;53.530;50.016;2024-03-06T08:48:11;5.75;;;3.22;;
86084;SDS011;76694;53.530;50.016;2024-03-06T08:53:13;5.35;;;2.53;;
86084;SDS011;76694;53.530;50.016;2024-03-06T08:58:17;5.85;;;2.88;;
86084;SDS011;76694;53.530;50.016;2024-03-06T09:03:22;5.43;;;2.90;;
86084;SDS011;76694;53.530;50.016;2024-03-06T09:08:26;5.63;;;2.47;;
86084;SDS011;76694;53.530;50.016;2024-03-06T09:13:28;5.30;;;2.65;;
86084;SDS011;76694;53.530;50.016;2024-03-06T09:18:31;5.70;;;2.72;;
86084;SDS011;76694;53.530;50.016;2024-03-06T09:23:34;6.68;;;3.00;;
86084;SDS011;76694;53.530;50.016;2024-03-06T09:28:38;6.38;;;3.22;;
86084;SDS011;76694;53.530;50.016;2024-03-06T09:33:41;8.18;;;2.85;;
86084;SDS011;76694;53.530;50.016;2024-03-06T09:38:44;6.30;;;2.83;;
86084;SDS011;76694;53.530;50.016;2024-03-06T09:43:47;6.57;;;3.30;;
86084;SDS011;76694;53.530;50.016;2024-03-06T09:48:50;10.38;;;3.80;;
86084;SDS011;76694;53.530;50.016;2024-03-06T09:53:54;8.40;;;4.53;;
86084;SDS011;76694;53.530;50.016;2024-03-06T09:58:57;7.55;;;3.15;;
86084;SDS011;76694;53.530;50.016;2024-03-06T10:04:16;7.47;;;3.20;;
86084;SDS011;76694;53.530;50.016;2024-03-06T10:09:20;8.02;;;3.83;;
86084;SDS011;76694;53.530;50.016;2024-03-06T10:14:23;6.57;;;3.35;;
86084;SDS011;76694;53.530;50.016;2024-03-06T10:19:27;10.48;;;5.82;;
86084;SDS011;76694;53.530;50.016;2024-03-06T10:24:31;11.43;;;4.85;;
86084;SDS011;76694;53.530;50.016;2024-03-06T10:29:34;6.93;;;3.78;;
86084;SDS011;76694;53.530;50.016;2024-03-06T10:34:37;11.93;;;4.20;;
86084;SDS011;76694;53.530;50.016;2024-03-06T10:39:42;8.13;;;3.47;;
86084;SDS011;76694;53.530;50.016;2024-03-06T10:44:51;9.07;;;4.47;;
86084;SDS011;76694;53.530;50.016;2024-03-06T10:49:58;7.78;;;3.90;;
86084;SDS011;76694;53.530;50.016;2024-03-06T10:55:03;7.47;;;4.32;;
86084;SDS011;76694;53.530;50.016;2024-03-06T11:00:08;4.07;;;2.20;;
86084;SDS011;76694;53.530;50.016;2024-03-06T11:05:12;3.75;;;2.17;;
86084;SDS011;76694;53.530;50.016;2024-03-06T11:10:28;3.42;;;2.78;;
86084;SDS011;76694;53.530;50.016;2024-03-06T11:15:32;2.97;;;1.55;;
86084;SDS011;76694;53.530;50.016;2024-03-06T11:20:35;4.35;;;2.10;;
86084;SDS011;76694;53.530;50.016;2024-03-06T11:30:56;3.88;;;1.70;;
86084;SDS011;76694;53.530;50.016;2024-03-06T11:41:25;4.47;;;1.98;;
86084;SDS011;76694;53.530;50.016;2024-03-06T11:46:44;4.13;;;1.83;;
86084;SDS011;76694;53.530;50.016;2024-03-06T11:51:50;2.80;;;1.00;;
86084;SDS011;76694;53.530;50.016;2024-03-06T11:56:58;4.05;;;2.40;;
86084;SDS011;76694;53.530;50.016;2024-03-06T12:02:03;3.38;;;2.28;;
86084;SDS011;76694;53.530;50.016;2024-03-06T12:07:07;3.88;;;1.67;;
86084;SDS011;76694;53.530;50.016;2024-03-06T12:12:10;3.88;;;1.77;;
86084;SDS011;76694;53.530;50.016;2024-03-06T12:17:14;3.05;;;1.52;;
86084;SDS011;76694;53.530;50.016;2024-03-06T12:22:16;3.53;;;2.08;;
86084;SDS011;76694;53.530;50.016;2024-03-06T12:32:24;2.55;;;1.90;;
86084;SDS011;76694;53.530;50.016;2024-03-06T12:37:31;2.53;;;1.73;;
86084;SDS011;76694;53.530;50.016;2024-03-06T12:42:34;2.97;;;1.75;;
86084;SDS011;76694;53.530;50.016;2024-03-06T12:47:37;2.63;;;1.60;;
86084;SDS011;76694;53.530;50.016;2024-03-06T12:52:40;3.28;;;1.98;;
86084;SDS011;76694;53.530;50.016;2024-03-06T12:57:43;3.15;;;2.30;;
86084;SDS011;76694;53.530;50.016;2024-03-06T13:02:46;5.38;;;1.70;;
86084;SDS011;76694;53.530;50.016;2024-03-06T13:07:48;3.33;;;1.65;;
86084;SDS011;76694;53.530;50.016;2024-03-06T13:12:51;1.80;;;0.98;;
86084;SDS011;76694;53.530;50.016;2024-03-06T13:17:54;2.25;;;1.40;;
86084;SDS011;76694;53.530;50.016;2024-03-06T13:22:56;4.65;;;1.50;;
86084;SDS011;76694;53.530;50.016;2024-03-06T13:27:59;2.25;;;1.25;;
86084;SDS011;76694;53.530;50.016;2024-03-06T13:33:02;3.28;;;1.67;;
86084;SDS011;76694;53.530;50.016;2024-03-06T13:38:05;2.30;;;1.30;;
86084;SDS011;76694;53.530;50.016;2024-03-06T13:49:33;1.55;;;0.90;;
86084;SDS011;76694;53.530;50.016;2024-03-06T13:55:33;2.78;;;1.70;;
86084;SDS011;76694;53.530;50.016;2024-03-06T14:00:57;2.83;;;1.58;;
86084;SDS011;76694;53.530;50.016;2024-03-06T14:06:00;2.05;;;1.05;;
86084;SDS011;76694;53.530;50.016;2024-03-06T14:17:00;2.15;;;1.30;;
86084;SDS011;76694;53.530;50.016;2024-03-06T14:27:34;1.08;;;0.77;;
86084;SDS011;76694;53.530;50.016;2024-03-06T14:32:40;2.55;;;1.48;;
86084;SDS011;76694;53.530;50.016;2024-03-06T14:37:43;3.58;;;1.23;;
86084;SDS011;76694;53.530;50.016;2024-03-06T14:42:46;4.00;;;1.00;;
86084;SDS011;76694;53.530;50.016;2024-03-06T14:47:49;1.98;;;1.00;;
86084;SDS011;76694;53.530;50.016;2024-03-06T14:52:51;1.60;;;0.88;;
86084;SDS011;76694;53.530;50.016;2024-03-06T14:57:54;3.72;;;0.90;;
86084;SDS011;76694;53.530;50.016;2024-03-06T15:02:56;2.08;;;0.82;;
86084;SDS011;76694;53.530;50.016;2024-03-06T15:08:00;1.77;;;0.73;;
86084;SDS011;76694;53.530;50.016;2024-03-06T15:13:02;2.13;;;1.35;;
86084;SDS011;76694;53.530;50.016;2024-03-06T15:18:05;2.25;;;1.23;;
86084;SDS011;76694;53.530;50.016;2024-03-06T15:23:08;2.05;;;1.50;;
86084;SDS011;76694;53.530;50.016;2024-03-06T15:28:10;1.75;;;1.13;;
86084;SDS011;76694;53.530;50.016;2024-03-06T15:33:13;1.33;;;0.90;;
86084;SDS011;76694;53.530;50.016;2024-03-06T15:38:16;0.60;;;0.60;;
86084;SDS011;76694;53.530;50.016;2024-03-06T15:43:19;1.45;;;0.90;;
86084;SDS011;76694;53.530;50.016;2024-03-06T15:48:23;2.70;;;1.13;;
86084;SDS011;76694;53.530;50.016;2024-03-06T15:53:26;3.30;;;1.58;;
86084;SDS011;76694;53.530;50.016;2024-03-06T15:58:33;2.10;;;0.98;;
86084;SDS011;76694;53.530;50.016;2024-03-06T16:03:36;3.65;;;1.85;;
86084;SDS011;76694;53.530;50.016;2024-03-06T16:08:39;1.35;;;0.47;;
86084;SDS011;76694;53.530;50.016;2024-03-06T16:13:43;2.47;;;0.85;;
86084;SDS011;76694;53.530;50.016;2024-03-06T16:18:46;2.95;;;1.27;;
86084;SDS011;76694;53.530;50.016;2024-03-06T16:23:48;2.08;;;1.15;;
86084;SDS011;76694;53.530;50.016;2024-03-06T16:28:53;7.22;;;2.17;;
86084;SDS011;76694;53.530;50.016;2024-03-06T16:33:56;2.60;;;1.55;;
86084;SDS011;76694;53.530;50.016;2024-03-06T16:38:59;3.17;;;1.60;;
86084;SDS011;76694;53.530;50.016;2024-03-06T16:44:01;4.57;;;1.88;;
86084;SDS011;76694;53.530;50.016;2024-03-06T16:49:06;2.53;;;1.48;;
86084;SDS011;76694;53.530;50.016;2024-03-06T16:54:10;3.47;;;1.88;;
86084;SDS011;76694;53.530;50.016;2024-03-06T16:59:14;2.75;;;2.10;;
86084;SDS011;76694;53.530;50.016;2024-03-06T17:04:17;6.05;;;0.68;;
86084;SDS011;76694;53.530;50.016;2024-03-06T17:09:20;2.00;;;0.98;;
86084;SDS011;76694;53.530;50.016;2024-03-06T17:14:22;1.13;;;1.05;;
86084;SDS011;76694;53.530;50.016;2024-03-06T17:19:25;2.95;;;1.33;;
86084;SDS011;76694;53.530;50.016;2024-03-06T17:24:28;0.77;;;0.55;;
86084;SDS011;76694;53.530;50.016;2024-03-06T17:29:31;0.20;;;0.20;;
86084;SDS011;76694;53.530;50.016;2024-03-06T17:34:33;1.25;;;1.00;;
86084;SDS011;76694;53.530;50.016;2024-03-06T17:39:36;1.65;;;1.10;;
86084;SDS011;76694;53.530;50.016;2024-03-06T17:44:39;3.45;;;0.73;;
86084;SDS011;76694;53.530;50.016;2024-03-06T17:49:41;0.35;;;0.35;;
86084;SDS011;76694;53.530;50.016;2024-03-06T17:54:45;0.65;;;0.63;;
86084;SDS011;76694;53.530;50.016;2024-03-06T17:59:48;1.52;;;0.47;;
86084;SDS011;76694;53.530;50.016;2024-03-06T18:04:50;2.85;;;1.58;;
86084;SDS011;76694;53.530;50.016;2024-03-06T18:09:53;0.70;;;0.70;;
86084;SDS011;76694;53.530;50.016;2024-03-06T18:14:56;1.25;;;0.90;;
86084;SDS011;76694;53.530;50.016;2024-03-06T18:19:59;1.45;;;1.15;;
86084;SDS011;76694;53.530;50.016;2024-03-06T18:25:02;1.00;;;0.32;;
86084;SDS011;76694;53.530;50.016;2024-03-06T18:30:06;2.03;;;1.05;;
86084;SDS011;76694;53.530;50.016;2024-03-06T18:35:10;0.22;;;0.22;;
86084;SDS011;76694;53.530;50.016;2024-03-06T18:40:13;2.70;;;1.50;;
86084;SDS011;76694;53.530;50.016;2024-03-06T18:45:16;0.30;;;0.30;;
86084;SDS011;76694;53.530;50.016;2024-03-06T18:50:20;1.17;;;0.77;;
86084;SDS011;76694;53.530;50.016;2024-03-06T18:55:25;2.00;;;0.47;;
86084;SDS011;76694;53.530;50.016;2024-03-06T19:00:28;0.00;;;0.00;;
86084;SDS011;76694;53.530;50.016;2024-03-06T19:05:31;1.08;;;1.00;;
86084;SDS011;76694;53.530;50.016;2024-03-06T19:10:33;0.65;;;0.63;;
86084;SDS011;76694;53.530;50.016;2024-03-06T19:15:36;0.77;;;0.55;;
86084;SDS011;76694;53.530;50.016;2024-03-06T19:20:39;0.13;;;0.13;;
86084;SDS011;76694;53.530;50.016;2024-03-06T19:25:41;1.73;;;0.65;;
86084;SDS011;76694;53.530;50.016;2024-03-06T19:30:44;3.05;;;2.67;;
86084;SDS011;76694;53.530;50.016;2024-03-06T19:35:46;0.30;;;0.28;;
86084;SDS011;76694;53.530;50.016;2024-03-06T19:40:49;0.25;;;0.25;;
86084;SDS011;76694;53.530;50.016;2024-03-06T19:45:52;2.72;;;0.70;;
86084;SDS011;76694;53.530;50.016;2024-03-06T19:50:54;0.15;;;0.15;;
86084;SDS011;76694;53.530;50.016;2024-03-06T20:01:00;3.10;;;1.45;;
86084;SDS011;76694;53.530;50.016;2024-03-06T20:06:03;1.38;;;0.80;;
86084;SDS011;76694;53.530;50.016;2024-03-06T20:11:06;1.25;;;0.75;;
86084;SDS011;76694;53.530;50.016;2024-03-06T20:16:08;0.40;;;0.40;;
86084;SDS011;76694;53.530;50.016;2024-03-06T20:21:11;3.28;;;0.95;;
86084;SDS011;76694;53.530;50.016;2024-03-06T20:26:14;0.00;;;0.00;;
86084;SDS011;76694;53.530;50.016;2024-03-06T20:31:17;0.10;;;0.10;;
86084;SDS011;76694;53.530;50.016;2024-03-06T20:36:19;0.08;;;0.08;;
86084;SDS011;76694;53.530;50.016;2024-03-06T20:41:22;1.77;;;1.40;;
86084;SDS011;76694;53.530;50.016;2024-03-06T20:46:24;1.08;;;0.38;;
86084;SDS011;76694;53.530;50.016;2024-03-06T20:51:28;0.75;;;0.75;;
86084;SDS011;76694;53.530;50.016;2024-03-06T20:56:32;0.38;;;0.30;;
86084;SDS011;76694;53.530;50.016;2024-03-06T21:01:35;5.90;;;1.88;;
86084;SDS011;76694;53.530;50.016;2024-03-06T21:06:37;0.25;;;0.25;;
86084;SDS011;76694;53.530;50.016;2024-03-06T21:11:40;0.90;;;0.65;;
86084;SDS011;76694;53.530;50.016;2024-03-06T21:16:42;0.17;;;0.17;;
86084;SDS011;76694;53.530;50.016;2024-03-06T21:21:45;0.00;;;0.00;;
86084;SDS011;76694;53.530;50.016;2024-03-06T21:26:47;0.00;;;0.00;;
86084;SDS011;76694;53.530;50.016;2024-03-06T21:31:50;0.38;;;0.38;;
86084;SDS011;76694;53.530;50.016;2024-03-06T21:36:53;0.17;;;0.17;;
86084;SDS011;76694;53.530;50.016;2024-03-06T21:41:56;2.00;;;0.80;;
86084;SDS011;76694;53.530;50.016;2024-03-06T21:46:59;1.95;;;0.95;;
86084;SDS011;76694;53.530;50.016;2024-03-06T21:52:02;0.77;;;0.77;;
86084;SDS011;76694;53.530;50.016;2024-03-06T21:57:05;0.10;;;0.10;;
86084;SDS011;76694;53.530;50.016;2024-03-06T22:02:13;0.63;;;0.63;;
86084;SDS011;76694;53.530;50.016;2024-03-06T22:07:15;0.10;;;0.10;;
86084;SDS011;76694;53.530;50.016;2024-03-06T22:12:19;0.63;;;0.63;;
86084;SDS011;76694;53.530;50.016;2024-03-06T22:17:24;0.30;;;0.30;;
86084;SDS011;76694;53.530;50.016;2024-03-06T22:22:31;0.55;;;0.25;;
86084;SDS011;76694;53.530;50.016;2024-03-06T22:27:34;2.50;;;1.30;;
86084;SDS011;76694;53.530;50.016;2024-03-06T22:32:37;1.60;;;0.68;;
86084;SDS011;76694;53.530;50.016;2024-03-06T22:37:39;0.57;;;0.57;;
86084;SDS011;76694;53.530;50.016;2024-03-06T22:42:42;1.23;;;0.63;;
86084;SDS011;76694;53.530;50.016;2024-03-06T22:47:45;0.50;;;0.43;;
86084;SDS011;76694;53.530;50.016;2024-03-06T22:52:47;2.50;;;1.15;;
86084;SDS011;76694;53.530;50.016;2024-03-06T22:57:50;0.25;;;0.22;;
86084;SDS011;76694;53.530;50.016;2024-03-06T23:02:52;2.92;;;0.90;;
86084;SDS011;76694;53.530;50.016;2024-03-06T23:07:56;0.17;;;0.17;;
86084;SDS011;76694;53.530;50.016;2024-03-06T23:12:59;0.43;;;0.43;;
86084;SDS011;76694;53.530;50.016;2024-03-06T23:18:01;0.43;;;0.40;;
86084;SDS011;76694;53.530;50.016;2024-03-06T23:23:04;0.00;;;0.00;;
86084;SDS011;76694;53.530;50.016;2024-03-06T23:28:07;3.72;;;0.50;;
86084;SDS011;76694;53.530;50.016;2024-03-06T23:33:12;0.28;;;0.28;;
86084;SDS011;76694;53.530;50.016;2024-03-06T23:38:15;1.85;;;1.27;;
86084;SDS011;76694;53.530;50.016;2024-03-06T23:43:18;0.00;;;0.00;;
86084;SDS011;76694;53.530;50.016;2024-03-06T23:48:21;4.93;;;0.50;;
86084;SDS011;76694;53.530;50.016;2024-03-06T23:53:24;0.10;;;0.10;;
86084;SDS011;76694;53.530;50.016;2024-03-06T23:58:27;0.20;;;0.20;;
